Time;durP1;ratioP1;P1;durP2;ratioP2;P2;SDS_P1;SDS_P2;PMS_P1;PMS_P2;Temp;Humidity;BMP_temperature;BMP_pressure;BME280_temperature;BME280_humidity;BME280_pressure;Samples;Min_cycle;Max_cycle;Signal;HPM_P1;HPM_P2
2023/03/20 00:01:21;;;;;;;4.82;0.60;;;18.50;1.00;;;;;;5103932;28;20121;-40
2023/03/20 00:03:48;;;;;;;2.03;0.50;;;18.50;1.00;;;;;;5094596;28;20044;-35
2023/03/20 00:06:20;;;;;;;5.35;0.80;;;18.50;1.00;;;;;;5095482;28;20119;-34
2023/03/20 00:08:50;;;;;;;7.90;1.52;;;18.40;1.00;;;;;;5095338;28;20044;-35
2023/03/20 00:11:28;;;;;;;1.83;0.50;;;18.40;1.00;;;;;;5095437;28;20124;-35
2023/03/20 00:14:08;;;;;;;1.80;0.80;;;18.40;1.00;;;;;;5094438;28;20479;-36
2023/03/20 00:16:37;;;;;;;5.28;0.70;;;18.30;1.00;;;;;;5095317;28;20123;-36
2023/03/20 00:19:05;;;;;;;1.95;0.70;;;18.30;1.00;;;;;;5095229;28;20040;-36
2023/03/20 00:21:33;;;;;;;3.10;0.73;;;18.30;1.00;;;;;;5095219;28;20040;-35
2023/03/20 00:24:00;;;;;;;2.60;0.73;;;18.30;1.00;;;;;;5094643;28;20066;-36
2023/03/20 00:26:31;;;;;;;1.42;0.80;;;18.20;1.00;;;;;;5095028;28;20445;-35
2023/03/20 00:28:59;;;;;;;5.10;1.02;;;18.20;1.00;;;;;;5093614;28;20147;-36
2023/03/20 00:31:32;;;;;;;4.47;0.85;;;18.20;1.00;;;;;;5093659;28;20040;-35
2023/03/20 00:34:05;;;;;;;2.28;1.10;;;18.20;1.00;;;;;;5092700;28;20403;-35
2023/03/20 00:36:32;;;;;;;3.22;0.77;;;18.20;1.00;;;;;;5094983;28;20487;-34
2023/03/20 00:38:59;;;;;;;5.22;1.05;;;18.20;1.00;;;;;;5094759;28;20068;-35
2023/03/20 00:42:02;;;;;;;3.20;0.57;;;18.10;1.00;;;;;;5093376;28;20408;-35
2023/03/20 00:45:04;;;;;;;2.53;0.68;;;18.10;1.00;;;;;;5091791;28;20062;-35
2023/03/20 00:47:35;;;;;;;3.75;0.70;;;18.00;1.00;;;;;;5092806;28;20056;-34
2023/03/20 00:50:05;;;;;;;3.28;0.93;;;18.00;1.00;;;;;;5093285;28;20044;-35
2023/03/20 00:52:32;;;;;;;4.45;0.90;;;18.00;1.00;;;;;;5093872;28;20032;-34
2023/03/20 00:54:59;;;;;;;6.75;1.20;;;18.00;1.00;;;;;;5094072;28;20064;-35
2023/03/20 00:57:32;;;;;;;3.13;0.70;;;18.00;1.00;;;;;;5093151;28;20093;-36
2023/03/20 01:00:11;;;;;;;5.05;1.20;;;18.00;1.00;;;;;;5092604;28;20562;-36
2023/03/20 01:02:38;;;;;;;4.10;0.90;;;17.90;1.00;;;;;;5092360;28;20063;-36
2023/03/20 01:05:05;;;;;;;2.90;0.80;;;17.90;1.00;;;;;;5094372;28;20044;-35
2023/03/20 01:07:32;;;;;;;5.13;1.33;;;17.90;1.00;;;;;;5094302;28;20495;-36
2023/03/20 01:10:01;;;;;;;6.13;0.77;;;17.90;1.00;;;;;;5092784;28;20389;-36
2023/03/20 01:12:29;;;;;;;5.15;1.08;;;17.80;1.00;;;;;;5092563;28;20097;-35
2023/03/20 01:14:57;;;;;;;1.45;1.08;;;17.80;1.00;;;;;;5093539;28;20047;-35
2023/03/20 01:17:26;;;;;;;4.38;1.00;;;17.80;1.00;;;;;;5092161;28;20392;-34
2023/03/20 01:19:53;;;;;;;2.20;1.08;;;17.80;1.00;;;;;;5093530;28;20453;-34
2023/03/20 01:22:20;;;;;;;2.85;0.70;;;17.80;1.00;;;;;;5092303;28;20044;-35
2023/03/20 01:24:47;;;;;;;2.08;0.60;;;17.80;1.00;;;;;;5089100;28;20406;-35
2023/03/20 01:27:16;;;;;;;2.30;0.70;;;17.80;1.00;;;;;;5102224;28;20051;-35
2023/03/20 01:29:43;;;;;;;2.55;0.70;;;17.70;1.00;;;;;;5104029;28;20031;-36
2023/03/20 01:32:13;;;;;;;2.70;0.95;;;17.70;1.00;;;;;;5104180;28;20070;-35
2023/03/20 01:34:40;;;;;;;4.43;1.13;;;17.70;1.00;;;;;;5112206;28;20050;-35
2023/03/20 01:37:26;;;;;;;2.05;0.80;;;17.70;1.00;;;;;;5112856;28;20043;-34
2023/03/20 01:39:56;;;;;;;5.03;1.58;;;17.70;1.00;;;;;;5093849;28;20050;-35
2023/03/20 01:42:24;;;;;;;4.60;1.05;;;17.70;1.00;;;;;;5109348;28;20089;-35
2023/03/20 01:44:51;;;;;;;4.07;0.88;;;17.70;1.00;;;;;;5112092;28;20101;-35
2023/03/20 01:47:24;;;;;;;3.00;1.08;;;17.60;1.00;;;;;;5112663;28;20051;-35
2023/03/20 01:50:28;;;;;;;2.28;0.70;;;17.60;1.00;;;;;;5112474;28;20476;-35
2023/03/20 01:53:21;;;;;;;3.60;0.75;;;17.60;1.00;;;;;;5111835;28;20040;-35
2023/03/20 01:55:56;;;;;;;8.13;1.40;;;17.60;1.00;;;;;;5112489;28;20428;-35
2023/03/20 01:58:36;;;;;;;;;;;17.60;1.00;;;;;;5112897;28;20044;-34
2023/03/20 02:01:05;;;;;;;2.97;1.10;;;17.60;1.00;;;;;;5112299;28;19919;-35
2023/03/20 02:03:32;;;;;;;3.35;1.48;;;17.50;1.00;;;;;;5093990;28;20039;-35
2023/03/20 02:06:11;;;;;;;1.63;0.75;;;17.50;1.00;;;;;;5113653;28;20130;-35
2023/03/20 02:08:58;;;;;;;2.75;0.80;;;17.50;1.00;;;;;;5112903;28;20127;-35
2023/03/20 02:11:30;;;;;;;8.05;1.13;;;17.50;1.00;;;;;;5112150;28;20044;-35
2023/03/20 02:13:59;;;;;;;3.38;0.88;;;17.50;1.00;;;;;;5111265;28;20058;-34
2023/03/20 02:16:32;;;;;;;1.38;0.60;;;17.50;1.00;;;;;;5112173;28;20044;-34
2023/03/20 02:19:22;;;;;;;3.42;0.85;;;17.50;1.00;;;;;;5111947;28;20051;-35
2023/03/20 02:22:29;;;;;;;2.80;1.48;;;17.50;1.00;;;;;;5111930;28;20138;-35
2023/03/20 02:25:15;;;;;;;3.95;1.20;;;17.50;1.00;;;;;;5111529;28;20105;-35
2023/03/20 02:27:50;;;;;;;4.70;2.22;;;17.40;1.00;;;;;;5111791;28;20495;-34
2023/03/20 02:30:51;;;;;;;3.85;0.63;;;17.40;1.00;;;;;;5111730;28;20069;-35
2023/03/20 02:33:27;;;;;;;4.78;0.90;;;17.40;1.00;;;;;;5110900;28;20050;-34
2023/03/20 02:36:14;;;;;;;7.35;1.67;;;17.40;1.00;;;;;;5111587;28;20048;-35
2023/03/20 02:38:50;;;;;;;4.95;1.15;;;17.40;1.00;;;;;;5111733;28;20039;-35
2023/03/20 02:41:31;;;;;;;3.42;1.25;;;17.40;1.00;;;;;;5113003;28;20040;-35
2023/03/20 02:44:05;;;;;;;2.45;0.77;;;17.30;1.00;;;;;;5110629;28;20035;-35
2023/03/20 02:46:47;;;;;;;3.05;0.90;;;17.30;1.00;;;;;;5111523;28;20452;-35
2023/03/20 02:49:56;;;;;;;2.72;0.85;;;17.30;1.00;;;;;;5111519;28;20035;-34
2023/03/20 02:52:40;;;;;;;2.38;0.75;;;17.30;1.00;;;;;;5111026;28;20046;-35
2023/03/20 02:55:25;;;;;;;4.03;0.70;;;17.20;1.00;;;;;;5112612;28;20067;-36
2023/03/20 02:58:21;;;;;;;4.22;0.70;;;17.20;1.00;;;;;;5111354;28;20091;-35
2023/03/20 03:01:22;;;;;;;2.67;0.57;;;17.20;1.00;;;;;;5111402;28;20074;-35
2023/03/20 03:03:59;;;;;;;1.45;0.52;;;17.20;1.00;;;;;;5110477;28;20051;-35
2023/03/20 03:06:31;;;;;;;1.92;0.90;;;17.20;1.00;;;;;;5111224;28;20044;-35
2023/03/20 03:09:18;;;;;;;2.17;0.75;;;17.20;1.00;;;;;;5112368;28;20040;-35
2023/03/20 03:11:56;;;;;;;6.97;0.85;;;17.20;1.00;;;;;;5111298;28;20050;-35
2023/03/20 03:14:29;;;;;;;4.30;1.15;;;17.20;1.00;;;;;;5111518;28;20085;-35
2023/03/20 03:16:58;;;;;;;1.70;0.93;;;17.20;1.00;;;;;;5111267;28;20048;-34
2023/03/20 03:19:28;;;;;;;4.65;1.15;;;17.10;1.00;;;;;;5111071;28;20134;-36
2023/03/20 03:21:55;;;;;;;2.45;0.75;;;17.10;1.00;;;;;;5112371;28;20127;-35
2023/03/20 03:24:31;;;;;;;1.70;0.77;;;17.10;1.00;;;;;;5110323;28;20047;-35
2023/03/20 03:27:17;;;;;;;4.00;1.02;;;17.10;1.00;;;;;;5111200;28;20051;-36
2023/03/20 03:29:47;;;;;;;2.03;0.70;;;17.10;1.00;;;;;;5110974;28;20469;-35
2023/03/20 03:32:27;;;;;;;3.08;1.13;;;17.10;1.00;;;;;;5110806;28;20053;-35
2023/03/20 03:34:55;;;;;;;3.28;1.13;;;17.10;1.00;;;;;;5110438;28;20036;-35
2023/03/20 03:37:42;;;;;;;2.25;0.73;;;17.10;1.00;;;;;;5098319;22;20059;-37
2023/03/20 03:40:31;;;;;;;3.22;0.88;;;17.10;1.00;;;;;;5070209;28;20051;-37
2023/03/20 03:43:10;;;;;;;5.25;1.00;;;17.00;1.00;;;;;;5063108;28;20048;-37
2023/03/20 03:45:58;;;;;;;4.28;1.15;;;17.00;1.00;;;;;;5068974;28;20045;-37
2023/03/20 03:48:33;;;;;;;5.10;1.23;;;17.00;1.00;;;;;;5050855;28;20045;-37
2023/03/20 03:51:15;;;;;;;3.05;0.65;;;17.00;1.00;;;;;;5071603;28;20135;-37
2023/03/20 03:54:15;;;;;;;3.75;1.42;;;17.00;1.00;;;;;;5055316;28;20118;-37
2023/03/20 03:56:47;;;;;;;3.88;0.85;;;17.00;1.00;;;;;;5051437;28;20507;-36
2023/03/20 03:59:33;;;;;;;2.08;0.88;;;17.00;1.00;;;;;;5033587;28;20045;-37
2023/03/20 04:02:02;;;;;;;3.20;1.02;;;17.00;1.00;;;;;;5050157;28;20475;-37
2023/03/20 04:04:31;;;;;;;2.60;1.15;;;17.00;1.00;;;;;;5032845;28;20501;-37
2023/03/20 04:06:58;;;;;;;3.13;0.95;;;16.90;1.00;;;;;;5033326;28;20492;-37
2023/03/20 04:09:27;;;;;;;3.13;1.05;;;16.90;1.00;;;;;;5033371;28;20464;-37
2023/03/20 04:11:54;;;;;;;2.40;0.68;;;16.90;1.00;;;;;;5033427;28;20485;-37
2023/03/20 04:14:21;;;;;;;4.65;1.08;;;16.90;1.00;;;;;;5050628;28;20038;-37
2023/03/20 04:16:48;;;;;;;3.58;0.82;;;16.90;1.00;;;;;;5050064;28;20079;-37
2023/03/20 04:19:15;;;;;;;2.75;0.95;;;16.90;1.00;;;;;;5051228;28;20047;-36
2023/03/20 04:21:44;;;;;;;2.63;0.98;;;16.90;1.00;;;;;;5049695;28;20079;-36
2023/03/20 04:24:11;;;;;;;2.92;1.00;;;16.90;1.00;;;;;;5052312;28;20520;-37
2023/03/20 04:26:39;;;;;;;8.13;1.42;;;16.90;1.00;;;;;;5072256;28;20403;-37
2023/03/20 04:29:06;;;;;;;2.97;0.70;;;16.90;1.00;;;;;;5074701;28;20037;-37
2023/03/20 04:32:00;;;;;;;3.60;1.02;;;16.80;1.00;;;;;;5056841;28;20045;-37
2023/03/20 04:34:46;;;;;;;2.03;0.80;;;16.80;1.00;;;;;;5056425;28;20086;-36
2023/03/20 04:37:44;;;;;;;3.50;0.93;;;16.80;1.00;;;;;;5056539;28;20411;-36
2023/03/20 04:40:12;;;;;;;7.13;1.15;;;16.80;1.00;;;;;;5056528;28;20049;-37
2023/03/20 04:42:41;;;;;;;4.57;0.80;;;16.80;1.00;;;;;;5055906;28;20044;-37
2023/03/20 04:45:08;;;;;;;2.40;0.80;;;16.70;1.00;;;;;;5056479;28;20048;-37
2023/03/20 04:47:37;;;;;;;4.63;1.85;;;16.70;1.00;;;;;;5056418;28;20131;-37
2023/03/20 04:50:08;;;;;;;3.65;1.20;;;16.70;1.00;;;;;;5074345;28;20033;-37
2023/03/20 04:52:35;;;;;;;2.10;0.75;;;16.70;1.00;;;;;;5056169;28;20495;-36
2023/03/20 04:55:03;;;;;;;2.05;1.00;;;16.70;1.00;;;;;;5074004;28;20040;-37
2023/03/20 04:57:30;;;;;;;2.20;0.75;;;16.70;1.00;;;;;;5056315;28;20090;-36
2023/03/20 04:59:57;;;;;;;2.00;1.02;;;16.70;1.00;;;;;;5056262;28;20045;-36
2023/03/20 05:02:24;;;;;;;6.72;1.05;;;16.70;1.00;;;;;;5055891;28;20052;-37
2023/03/20 05:04:52;;;;;;;3.03;1.15;;;16.70;1.00;;;;;;5055718;28;20461;-37
2023/03/20 05:07:19;;;;;;;5.82;1.00;;;16.70;1.00;;;;;;5071583;28;20385;-37
2023/03/20 05:09:54;;;;;;;6.05;1.60;;;16.70;1.00;;;;;;5070102;28;20384;-37
2023/03/20 05:12:22;;;;;;;2.45;0.85;;;16.60;1.00;;;;;;5063863;28;20045;-37
2023/03/20 05:15:08;;;;;;;1.48;0.77;;;16.60;1.00;;;;;;5073981;28;20124;-37
2023/03/20 05:17:34;;;;;;;1.92;0.65;;;16.60;1.00;;;;;;5073845;28;20052;-37
2023/03/20 05:20:18;;;;;;;6.32;1.88;;;16.60;1.00;;;;;;5073772;28;20040;-37
2023/03/20 05:22:54;;;;;;;3.42;1.00;;;16.60;1.00;;;;;;5071689;28;20048;-37
2023/03/20 05:25:47;;;;;;;6.57;1.15;;;16.50;1.00;;;;;;5057573;28;20474;-37
2023/03/20 05:28:24;;;;;;;4.38;1.10;;;16.50;1.00;;;;;;5063861;28;20052;-37
2023/03/20 05:31:09;;;;;;;6.07;1.40;;;16.50;1.00;;;;;;5071374;28;20287;-37
2023/03/20 05:34:12;;;;;;;6.40;1.58;;;16.60;1.00;;;;;;5030322;28;20072;-37
2023/03/20 05:36:41;;;;;;;3.20;1.00;;;16.60;1.00;;;;;;5065543;28;20053;-37
2023/03/20 05:39:26;;;;;;;4.93;2.33;;;16.50;1.00;;;;;;5072688;28;20129;-37
2023/03/20 05:42:12;;;;;;;6.90;1.25;;;16.50;1.00;;;;;;5073474;28;20052;-37
2023/03/20 05:44:48;;;;;;;2.72;0.60;;;16.50;1.00;;;;;;5072939;28;20032;-37
2023/03/20 05:47:44;;;;;;;4.40;1.30;;;16.50;1.00;;;;;;5063895;28;20049;-37
2023/03/20 05:50:24;;;;;;;4.00;1.33;;;16.50;1.00;;;;;;5071818;28;20527;-37
2023/03/20 05:53:02;;;;;;;7.03;1.35;;;16.50;1.00;;;;;;5071093;28;20037;-37
2023/03/20 05:55:48;;;;;;;2.22;1.00;;;16.50;1.00;;;;;;5063631;28;20902;-37
2023/03/20 05:58:34;;;;;;;5.53;1.65;;;16.40;1.00;;;;;;5055814;28;20047;-37
2023/03/20 06:01:23;;;;;;;4.05;1.20;;;16.40;1.00;;;;;;5054528;28;20129;-37
2023/03/20 06:03:59;;;;;;;5.30;1.30;;;16.50;1.00;;;;;;5051781;28;20054;-37
2023/03/20 06:06:55;;;;;;;5.90;2.20;;;16.40;1.00;;;;;;5057401;28;20052;-37
2023/03/20 06:09:22;;;;;;;4.40;1.33;;;16.40;1.00;;;;;;5071570;28;20051;-37
2023/03/20 06:11:49;;;;;;;3.15;1.55;;;16.40;1.00;;;;;;5071334;28;20044;-37
2023/03/20 06:14:17;;;;;;;3.72;1.25;;;16.40;1.00;;;;;;5070675;28;20411;-37
2023/03/20 06:16:52;;;;;;;3.15;1.17;;;16.40;1.00;;;;;;5071257;28;20514;-37
2023/03/20 06:19:23;;;;;;;3.78;1.20;;;16.40;1.00;;;;;;5071487;28;20094;-37
2023/03/20 06:21:50;;;;;;;4.05;1.25;;;16.40;1.00;;;;;;5071260;28;20117;-37
2023/03/20 06:24:19;;;;;;;7.30;1.50;;;16.30;1.00;;;;;;5070899;28;20127;-37
2023/03/20 06:26:46;;;;;;;4.43;1.25;;;16.30;1.00;;;;;;5071013;28;20044;-37
2023/03/20 06:29:13;;;;;;;5.90;1.40;;;16.40;1.00;;;;;;5071225;28;20044;-37
2023/03/20 06:31:40;;;;;;;4.10;1.30;;;16.30;1.00;;;;;;5070910;28;20064;-37
2023/03/20 06:34:11;;;;;;;7.32;1.20;;;16.30;1.00;;;;;;5070475;28;20124;-37
2023/03/20 06:36:43;;;;;;;5.40;1.70;;;16.30;1.00;;;;;;5070915;28;20041;-37
2023/03/20 06:39:17;;;;;;;4.35;1.33;;;16.30;1.00;;;;;;5071132;28;20044;-37
2023/03/20 06:41:44;;;;;;;5.20;1.23;;;16.30;1.00;;;;;;5069041;28;20053;-37
2023/03/20 06:44:11;;;;;;;8.70;2.40;;;16.30;1.00;;;;;;5070305;28;20131;-37
2023/03/20 06:47:03;;;;;;;5.00;1.30;;;16.30;1.00;;;;;;5070781;28;20052;-37
2023/03/20 06:49:30;;;;;;;3.58;1.25;;;16.30;1.00;;;;;;5070728;28;20526;-37
2023/03/20 06:51:58;;;;;;;4.05;1.40;;;16.20;1.00;;;;;;5072056;28;20048;-37
2023/03/20 06:54:25;;;;;;;4.72;1.73;;;16.20;1.00;;;;;;5071435;28;20037;-37
2023/03/20 06:56:53;;;;;;;7.25;1.48;;;16.20;1.00;;;;;;5070543;28;20047;-37
2023/03/20 06:59:20;;;;;;;2.65;1.13;;;16.20;1.00;;;;;;5070758;28;20047;-37
2023/03/20 07:01:48;;;;;;;3.25;0.90;;;16.20;1.00;;;;;;5070706;28;20098;-37
2023/03/20 07:04:16;;;;;;;5.30;1.27;;;16.20;1.00;;;;;;5070058;28;20427;-37
2023/03/20 07:06:48;;;;;;;2.00;1.02;;;16.20;1.00;;;;;;5070580;28;20462;-37
2023/03/20 07:09:16;;;;;;;4.15;1.33;;;16.20;1.00;;;;;;5070489;28;20149;-37
2023/03/20 07:11:43;;;;;;;3.53;1.05;;;16.20;1.00;;;;;;5070553;28;20117;-37
2023/03/20 07:14:12;;;;;;;8.57;1.33;;;16.20;1.00;;;;;;5069840;28;20511;-37
2023/03/20 07:16:47;;;;;;;2.72;1.17;;;16.20;1.00;;;;;;5070525;28;20051;-37
2023/03/20 07:19:15;;;;;;;7.18;1.38;;;16.20;1.00;;;;;;5070596;28;20074;-37
2023/03/20 07:21:45;;;;;;;4.22;1.40;;;16.10;1.00;;;;;;5070393;28;20051;-37
2023/03/20 07:24:14;;;;;;;4.25;1.52;;;16.10;1.00;;;;;;5069782;28;20060;-37
2023/03/20 07:26:40;;;;;;;2.90;1.25;;;16.10;1.00;;;;;;5071697;28;20052;-37
2023/03/20 07:29:08;;;;;;;4.10;0.88;;;16.20;1.00;;;;;;5071825;28;20041;-37
2023/03/20 07:31:36;;;;;;;6.57;1.00;;;16.10;1.00;;;;;;5070334;28;20314;-37
2023/03/20 07:34:13;;;;;;;4.28;1.38;;;16.10;1.00;;;;;;5069685;28;20099;-37
2023/03/20 07:36:40;;;;;;;4.43;1.00;;;16.10;1.00;;;;;;5070081;28;20056;-37
2023/03/20 07:39:08;;;;;;;6.35;1.75;;;16.10;1.00;;;;;;5070375;28;20045;-37
2023/03/20 07:41:37;;;;;;;4.53;1.30;;;16.10;1.00;;;;;;5070553;28;20049;-37
2023/03/20 07:44:09;;;;;;;6.93;1.77;;;16.10;1.00;;;;;;5069575;28;20090;-37
2023/03/20 07:47:02;;;;;;;7.30;1.67;;;16.10;1.00;;;;;;5069169;28;20065;-37
2023/03/20 07:49:29;;;;;;;4.97;1.08;;;16.10;1.00;;;;;;5070303;28;20049;-37
2023/03/20 07:51:56;;;;;;;8.02;1.45;;;16.10;1.00;;;;;;5069955;28;20041;-37
2023/03/20 07:54:23;;;;;;;7.47;1.40;;;16.10;1.00;;;;;;5069519;28;20462;-37
2023/03/20 07:56:50;;;;;;;2.78;1.20;;;16.10;1.00;;;;;;5069999;28;20036;-37
2023/03/20 07:59:17;;;;;;;2.60;0.77;;;16.10;1.00;;;;;;5071304;28;20047;-37
2023/03/20 08:01:44;;;;;;;5.10;1.08;;;16.00;1.00;;;;;;5072538;28;20052;-37
2023/03/20 08:04:11;;;;;;;3.08;1.20;;;16.10;1.00;;;;;;5074544;28;20047;-37
2023/03/20 08:06:38;;;;;;;6.65;1.02;;;16.10;1.00;;;;;;5074930;28;20129;-37
2023/03/20 08:09:06;;;;;;;2.22;0.98;;;16.00;1.00;;;;;;5075519;28;20412;-37
2023/03/20 08:11:32;;;;;;;6.20;1.40;;;16.00;1.00;;;;;;5074863;28;20040;-37
2023/03/20 08:14:00;;;;;;;4.32;1.25;;;16.00;1.00;;;;;;5074211;28;20054;-37
2023/03/20 08:16:27;;;;;;;4.70;1.20;;;16.00;1.00;;;;;;5074809;28;20479;-37
2023/03/20 08:18:59;;;;;;;5.15;1.45;;;16.00;1.00;;;;;;5074916;28;20041;-37
2023/03/20 08:21:28;;;;;;;4.85;1.45;;;16.00;1.00;;;;;;5073530;28;20462;-37
2023/03/20 08:23:56;;;;;;;5.38;1.00;;;16.00;1.00;;;;;;5074003;28;20138;-37
2023/03/20 08:26:23;;;;;;;7.30;1.30;;;16.00;1.00;;;;;;5074580;28;20105;-37
2023/03/20 08:28:50;;;;;;;9.25;1.65;;;16.00;1.00;;;;;;5074720;28;20048;-37
2023/03/20 08:31:18;;;;;;;6.25;1.50;;;16.00;1.00;;;;;;5074256;28;20545;-37
2023/03/20 08:33:46;;;;;;;8.23;1.83;;;16.00;1.00;;;;;;5073626;28;20037;-37
2023/03/20 08:36:14;;;;;;;3.13;1.08;;;16.00;1.00;;;;;;5074213;28;20045;-37
2023/03/20 08:38:41;;;;;;;7.20;1.52;;;16.00;1.00;;;;;;5074589;28;20040;-37
2023/03/20 08:41:08;;;;;;;6.90;1.40;;;16.00;1.00;;;;;;5074398;28;20050;-37
2023/03/20 08:43:35;;;;;;;5.75;1.42;;;16.00;1.00;;;;;;5073593;28;20411;-37
2023/03/20 08:46:02;;;;;;;4.55;1.23;;;16.00;1.00;;;;;;5074133;28;20571;-37
2023/03/20 08:48:29;;;;;;;7.93;1.63;;;16.00;1.00;;;;;;5074532;28;20037;-37
2023/03/20 08:50:56;;;;;;;5.75;1.10;;;16.00;1.00;;;;;;5074246;28;20047;-37
2023/03/20 08:53:23;;;;;;;5.05;2.00;;;15.90;1.00;;;;;;5073268;28;20051;-37
2023/03/20 08:55:51;;;;;;;6.90;1.38;;;16.00;1.00;;;;;;5074055;28;20040;-37
2023/03/20 08:58:19;;;;;;;5.72;1.70;;;16.00;1.00;;;;;;5073022;28;20036;-37
2023/03/20 09:00:46;;;;;;;5.32;1.27;;;15.90;1.00;;;;;;5074078;28;20060;-37
2023/03/20 09:03:18;;;;;;;7.43;2.20;;;15.90;1.00;;;;;;5073279;28;20049;-37
2023/03/20 09:05:47;;;;;;;5.65;1.15;;;15.90;1.00;;;;;;5073981;28;20048;-37
2023/03/20 09:08:14;;;;;;;7.40;1.88;;;16.00;1.00;;;;;;5073913;28;20086;-37
2023/03/20 09:10:41;;;;;;;5.43;1.35;;;15.90;1.00;;;;;;5073811;28;20050;-37
2023/03/20 09:13:08;;;;;;;8.45;2.05;;;15.90;1.00;;;;;;5072546;28;20047;-37
2023/03/20 09:15:53;;;;;;;4.25;1.27;;;16.00;1.00;;;;;;5073893;28;20045;-37
2023/03/20 09:18:20;;;;;;;5.97;1.20;;;15.90;1.00;;;;;;5073938;28;20182;-37
2023/03/20 09:20:48;;;;;;;6.47;1.83;;;15.90;1.00;;;;;;5073496;28;20055;-37
2023/03/20 09:23:16;;;;;;;9.25;1.58;;;15.90;1.00;;;;;;5072963;28;20044;-37
2023/03/20 09:25:43;;;;;;;8.93;1.95;;;15.90;1.00;;;;;;5073552;28;20040;-37
2023/03/20 09:28:10;;;;;;;6.22;1.60;;;15.90;1.00;;;;;;5073562;28;20043;-37
2023/03/20 09:30:39;;;;;;;5.75;1.25;;;15.90;1.00;;;;;;5073435;28;20043;-37
2023/03/20 09:33:06;;;;;;;6.25;1.58;;;15.90;1.00;;;;;;5072668;28;20568;-37
2023/03/20 09:35:33;;;;;;;6.57;1.40;;;15.90;1.00;;;;;;5073407;28;20048;-34
2023/03/20 09:38:00;;;;;;;6.72;1.67;;;15.90;1.00;;;;;;5068454;22;20465;-35
2023/03/20 09:40:32;;;;;;;6.40;1.98;;;15.90;1.00;;;;;;5053348;28;20057;-35
2023/03/20 09:43:32;;;;;;;7.78;1.50;;;15.90;1.00;;;;;;5052692;28;20090;-35
2023/03/20 09:45:59;;;;;;;6.50;1.95;;;15.90;1.00;;;;;;5054857;28;20048;-34
2023/03/20 09:48:47;;;;;;;8.90;1.48;;;15.90;1.00;;;;;;5073163;28;20049;-35
2023/03/20 09:51:25;;;;;;;9.25;2.25;;;15.90;1.00;;;;;;5073193;28;20040;-35
2023/03/20 09:53:57;;;;;;;6.97;1.95;;;15.90;1.00;;;;;;5072399;28;20045;-35
2023/03/20 09:56:28;;;;;;;6.57;1.83;;;15.90;1.00;;;;;;5072938;28;20040;-36
2023/03/20 09:59:01;;;;;;;7.93;1.33;;;15.90;1.00;;;;;;5072930;28;20050;-35
2023/03/20 10:01:47;;;;;;;11.88;2.88;;;15.90;1.00;;;;;;5055009;28;20045;-36
2023/03/20 10:04:14;;;;;;;6.85;2.03;;;15.90;1.00;;;;;;5072254;28;20044;-36
2023/03/20 10:06:41;;;;;;;9.32;1.77;;;15.90;1.00;;;;;;5072707;28;20043;-36
2023/03/20 10:09:20;;;;;;;6.80;1.50;;;15.80;1.00;;;;;;5072833;28;20402;-36
2023/03/20 10:12:17;;;;;;;7.90;1.77;;;15.90;1.00;;;;;;5072689;28;20040;-36
2023/03/20 10:15:03;;;;;;;7.57;2.05;;;15.80;1.00;;;;;;5072381;28;20082;-36
2023/03/20 10:17:57;;;;;;;8.27;1.70;;;15.80;1.00;;;;;;5072580;28;20407;-35
2023/03/20 10:20:34;;;;;;;8.30;2.10;;;15.80;1.00;;;;;;5072661;28;20040;-35
2023/03/20 10:23:06;;;;;;;6.40;1.27;;;15.90;1.00;;;;;;5071882;28;20124;-35
2023/03/20 10:25:41;;;;;;;5.60;2.17;;;15.80;1.00;;;;;;5071960;28;20059;-35
2023/03/20 10:28:21;;;;;;;7.10;1.38;;;15.80;1.00;;;;;;5072394;28;20036;-35
2023/03/20 10:31:11;;;;;;;5.00;1.50;;;15.80;1.00;;;;;;5072374;28;20556;-35
2023/03/20 10:34:02;;;;;;;7.70;1.70;;;15.80;1.00;;;;;;5071673;28;20049;-36
2023/03/20 10:36:40;;;;;;;5.80;1.70;;;15.80;1.00;;;;;;5072094;28;20073;-36
2023/03/20 10:39:20;;;;;;;5.85;1.90;;;15.80;1.00;;;;;;5072332;28;20043;-35
2023/03/20 10:42:01;;;;;;;7.82;1.55;;;15.80;1.00;;;;;;5072233;28;20044;-35
2023/03/20 10:44:39;;;;;;;4.43;1.27;;;15.80;1.00;;;;;;5071707;28;20044;-35
2023/03/20 10:47:21;;;;;;;;;;;15.80;1.00;;;;;;5071209;28;20062;-35
2023/03/20 10:49:57;;;;;;;6.20;1.25;;;15.80;1.00;;;;;;5054252;28;20421;-35
2023/03/20 10:52:34;;;;;;;11.95;3.00;;;15.80;1.00;;;;;;5071693;28;20064;-35
2023/03/20 10:55:15;;;;;;;6.70;1.65;;;15.80;1.00;;;;;;5071524;28;20095;-35
2023/03/20 10:58:01;;;;;;;5.55;1.48;;;15.80;1.00;;;;;;5071972;28;20044;-35
2023/03/20 11:00:37;;;;;;;4.53;1.48;;;15.80;1.00;;;;;;5071581;28;20044;-35
2023/03/20 11:03:07;;;;;;;9.07;2.00;;;15.80;1.00;;;;;;5071174;28;20044;-35
2023/03/20 11:05:35;;;;;;;10.27;2.20;;;15.80;1.00;;;;;;5071829;28;20049;-36
2023/03/20 11:08:12;;;;;;;9.77;2.83;;;15.80;1.00;;;;;;5071890;28;20114;-36
2023/03/20 11:10:41;;;;;;;9.68;1.83;;;15.80;1.00;;;;;;5071897;28;20042;-36
2023/03/20 11:13:34;;;;;;;6.63;1.40;;;15.80;1.00;;;;;;5070991;28;20041;-36
2023/03/20 11:16:21;;;;;;;8.18;2.10;;;15.80;1.00;;;;;;5057899;28;20052;-36
2023/03/20 11:18:51;;;;;;;6.18;1.60;;;15.70;1.00;;;;;;5071801;28;20036;-35
2023/03/20 11:21:28;;;;;;;7.57;1.67;;;15.80;1.00;;;;;;5071698;28;20044;-35
2023/03/20 11:23:54;;;;;;;9.45;3.13;;;15.70;1.00;;;;;;5071024;28;20044;-35
2023/03/20 11:26:35;;;;;;;5.38;1.63;;;15.70;1.00;;;;;;5071516;28;20511;-35
2023/03/20 11:29:06;;;;;;;3.72;1.40;;;15.70;1.00;;;;;;5071897;28;20075;-34
2023/03/20 11:31:39;;;;;;;6.10;1.98;;;15.70;1.00;;;;;;5071575;28;20044;-35
2023/03/20 11:34:06;;;;;;;7.47;1.98;;;15.70;1.00;;;;;;5070994;28;20044;-36
2023/03/20 11:36:35;;;;;;;13.00;1.90;;;15.80;1.00;;;;;;5074368;28;20474;-36
2023/03/20 11:39:14;;;;;;;7.45;1.88;;;15.70;1.00;;;;;;5075679;28;20052;-36
2023/03/20 11:41:53;;;;;;;6.85;1.90;;;15.70;1.00;;;;;;5075640;28;20068;-35
2023/03/20 11:44:26;;;;;;;4.85;1.52;;;15.70;1.00;;;;;;5057123;28;20057;-35
2023/03/20 11:47:03;;;;;;;7.88;1.48;;;15.70;1.00;;;;;;5075517;28;20048;-35
2023/03/20 11:49:32;;;;;;;7.45;1.50;;;15.70;1.00;;;;;;5075545;28;20040;-36
2023/03/20 11:52:10;;;;;;;5.78;1.85;;;15.70;1.00;;;;;;5075347;28;20044;-36
2023/03/20 11:54:45;;;;;;;8.30;2.13;;;15.70;1.00;;;;;;5075057;28;20132;-35
2023/03/20 11:57:40;;;;;;;7.07;1.90;;;15.70;1.00;;;;;;5075112;28;20177;-36
2023/03/20 12:00:09;;;;;;;7.85;1.90;;;15.70;1.00;;;;;;5072743;28;20143;-35
2023/03/20 12:02:39;;;;;;;7.97;1.55;;;15.70;1.00;;;;;;5074992;28;20040;-35
2023/03/20 12:05:29;;;;;;;5.32;1.63;;;15.70;1.00;;;;;;5075323;28;20055;-36
2023/03/20 12:08:14;;;;;;;6.60;1.75;;;15.70;1.00;;;;;;5075072;28;20048;-36
2023/03/20 12:10:47;;;;;;;5.70;1.48;;;15.70;1.00;;;;;;5075098;28;20044;-35
2023/03/20 12:13:37;;;;;;;7.85;1.90;;;15.70;1.00;;;;;;5074958;28;20048;-35
2023/03/20 12:16:10;;;;;;;8.38;1.58;;;15.70;1.00;;;;;;5074673;28;20037;-35
2023/03/20 12:18:53;;;;;;;4.03;1.63;;;15.70;1.00;;;;;;5074967;28;20047;-35
2023/03/20 12:21:33;;;;;;;6.03;1.98;;;15.70;1.00;;;;;;5057289;28;20112;-35
2023/03/20 12:24:10;;;;;;;5.82;2.50;;;15.70;1.00;;;;;;5074125;28;20484;-36
2023/03/20 12:27:00;;;;;;;7.70;1.67;;;15.70;1.00;;;;;;5074773;28;20044;-36
2023/03/20 12:29:40;;;;;;;7.93;1.95;;;15.70;1.00;;;;;;5056944;28;20415;-36
2023/03/20 12:32:39;;;;;;;4.90;1.98;;;15.70;1.00;;;;;;5074628;28;20070;-36
2023/03/20 12:35:36;;;;;;;6.88;1.88;;;15.70;1.00;;;;;;5074625;28;20036;-36
2023/03/20 12:38:20;;;;;;;6.97;2.58;;;15.70;1.00;;;;;;5074474;28;20495;-36
2023/03/20 12:40:52;;;;;;;4.60;1.85;;;15.70;1.00;;;;;;5074587;28;20044;-35
2023/03/20 12:43:26;;;;;;;5.18;1.40;;;15.70;1.00;;;;;;5073796;28;20106;-35
2023/03/20 12:46:10;;;;;;;8.82;2.15;;;15.70;1.00;;;;;;5074373;28;20119;-36
2023/03/20 12:48:47;;;;;;;4.13;1.52;;;15.70;1.00;;;;;;5073860;28;20467;-36
2023/03/20 12:51:26;;;;;;;7.72;1.45;;;15.70;1.00;;;;;;5074855;28;20079;-36
2023/03/20 12:54:09;;;;;;;10.45;2.70;;;15.70;1.00;;;;;;5073514;28;20488;-36
2023/03/20 12:56:57;;;;;;;2.55;1.17;;;15.70;1.00;;;;;;5074196;28;20045;-36
2023/03/20 12:59:52;;;;;;;3.72;1.80;;;15.70;1.00;;;;;;5074220;28;20040;-35
2023/03/20 13:02:49;;;;;;;3.90;1.98;;;15.70;1.00;;;;;;5074166;28;20388;-35
2023/03/20 13:05:24;;;;;;;2.83;1.10;;;15.70;1.00;;;;;;5074188;28;20059;-35
2023/03/20 13:08:09;;;;;;;5.88;1.70;;;15.70;1.00;;;;;;5056089;28;20045;-35
2023/03/20 13:10:39;;;;;;;5.32;1.75;;;15.70;1.00;;;;;;5073945;28;20069;-35
2023/03/20 13:13:14;;;;;;;3.03;1.63;;;15.70;1.00;;;;;;5073087;28;20068;-35
2023/03/20 13:15:57;;;;;;;7.25;2.08;;;15.70;1.00;;;;;;5073882;28;20048;-36
2023/03/20 13:18:49;;;;;;;4.45;1.83;;;15.70;1.00;;;;;;5073943;28;20055;-35
2023/03/20 13:21:28;;;;;;;8.50;2.42;;;15.70;1.00;;;;;;5073726;28;20099;-35
2023/03/20 13:24:23;;;;;;;9.35;2.03;;;15.70;1.00;;;;;;5073165;28;20048;-35
2023/03/20 13:27:06;;;;;;;4.05;1.73;;;15.70;1.00;;;;;;5073611;28;20044;-35
2023/03/20 13:30:01;;;;;;;4.90;1.58;;;15.70;1.00;;;;;;5073745;28;20108;-36
2023/03/20 13:32:53;;;;;;;3.10;1.55;;;15.70;1.00;;;;;;5059278;28;20745;-36
2023/03/20 13:35:39;;;;;;;4.55;1.42;;;15.70;1.00;;;;;;5073314;28;20511;-34
2023/03/20 13:38:15;;;;;;;6.15;1.52;;;15.70;1.00;;;;;;5073304;28;20075;-35
2023/03/20 13:40:44;;;;;;;4.70;1.23;;;15.70;1.00;;;;;;5073761;28;20119;-36